createdAt,value
2022-08-22T00:04:20.231Z,13.00
2022-08-22T00:09:58.705Z,12.00
2022-08-22T00:15:42.160Z,12.60
2022-08-22T00:21:18.220Z,12.50
2022-08-22T00:27:02.148Z,13.00
2022-08-22T00:32:37.286Z,12.10
2022-08-22T00:38:11.162Z,12.40
2022-08-22T00:43:39.600Z,12.00
2022-08-22T00:49:17.020Z,11.40
2022-08-22T00:54:53.654Z,12.10
2022-08-22T01:00:05.371Z,12.00
2022-08-22T01:05:20.497Z,12.40
2022-08-22T01:10:58.096Z,13.10
2022-08-22T01:16:41.958Z,12.20
2022-08-22T01:22:22.281Z,12.10
2022-08-22T01:27:37.038Z,11.40
2022-08-22T01:33:18.403Z,11.60
2022-08-22T01:39:02.072Z,12.80
2022-08-22T01:44:45.989Z,12.70
2022-08-22T01:50:00.628Z,12.40
2022-08-22T01:55:21.186Z,13.10
2022-08-22T02:00:35.528Z,13.00
2022-08-22T02:05:54.030Z,12.60
2022-08-22T02:11:12.143Z,12.90
2022-08-22T02:17:14.864Z,12.90
2022-08-22T02:22:44.505Z,11.90
2022-08-22T02:28:15.066Z,12.90
2022-08-22T02:33:45.845Z,11.70
2022-08-22T02:39:31.647Z,12.40
2022-08-22T02:44:53.064Z,12.00
2022-08-22T02:50:23.952Z,12.70
2022-08-22T02:55:34.031Z,12.00
2022-08-22T03:01:23.905Z,12.50
2022-08-22T03:06:50.171Z,12.20
2022-08-22T03:12:25.052Z,12.30
2022-08-22T03:17:55.581Z,12.80
2022-08-22T03:23:08.661Z,12.50
2022-08-22T03:28:59.427Z,11.60
2022-08-22T03:39:56.930Z,12.40
2022-08-22T03:45:52.516Z,12.60
2022-08-22T03:51:21.960Z,12.00
2022-08-22T03:57:10.761Z,11.80
2022-08-22T04:03:07.899Z,12.00
2022-08-22T04:08:26.450Z,12.50
2022-08-22T04:14:01.404Z,12.70
2022-08-22T04:19:22.851Z,12.80
2022-08-22T04:25:12.252Z,12.90
2022-08-22T04:31:06.109Z,13.20
2022-08-22T04:36:20.717Z,12.60
2022-08-22T04:41:52.409Z,11.70
2022-08-22T04:47:05.257Z,12.40
2022-08-22T04:53:09.193Z,13.30
2022-08-22T04:58:48.663Z,13.30
2022-08-22T05:04:06.963Z,12.20
2022-08-22T05:09:19.367Z,12.80
2022-08-22T05:14:43.654Z,13.90
2022-08-22T05:19:54.027Z,14.30
2022-08-22T05:25:04.891Z,14.20
2022-08-22T05:30:17.053Z,13.90
2022-08-22T05:35:36.116Z,13.90
2022-08-22T05:40:43.232Z,13.90
2022-08-22T05:45:48.060Z,13.50
2022-08-22T05:51:02.034Z,13.70
2022-08-22T05:56:41.102Z,12.90
2022-08-22T06:01:55.374Z,12.30
2022-08-22T06:07:18.392Z,12.30
2022-08-22T06:12:29.549Z,11.90
2022-08-22T06:17:43.166Z,11.70
2022-08-22T06:23:11.084Z,11.80
2022-08-22T06:28:29.731Z,11.10
2022-08-22T06:33:40.251Z,11.80
2022-08-22T06:38:53.741Z,11.50
2022-08-22T06:43:59.011Z,9.80
2022-08-22T06:49:04.764Z,11.00
2022-08-22T06:54:18.316Z,9.60
2022-08-22T06:59:32.296Z,9.50
2022-08-22T07:04:36.605Z,10.10
2022-08-22T07:09:42.106Z,9.00
2022-08-22T07:14:55.912Z,9.50
2022-08-22T07:20:22.735Z,9.20
2022-08-22T07:25:27.730Z,9.70
2022-08-22T07:31:02.058Z,9.10
2022-08-22T07:36:55.530Z,8.90
2022-08-22T07:42:10.077Z,9.70
2022-08-22T07:47:26.532Z,8.80
2022-08-22T07:52:40.685Z,8.70
2022-08-22T07:58:01.864Z,8.20
2022-08-22T08:03:11.984Z,8.50
2022-08-22T08:08:34.717Z,8.20
2022-08-22T08:13:43.957Z,9.10
2022-08-22T08:18:51.267Z,9.80
2022-08-22T08:23:55.137Z,13.00
2022-08-22T08:28:59.689Z,9.50
2022-08-22T08:34:32.668Z,9.10
2022-08-22T08:39:42.253Z,9.00
2022-08-22T08:45:05.141Z,8.60
2022-08-22T08:50:44.046Z,8.20
2022-08-22T08:56:03.285Z,8.70
2022-08-22T09:01:34.100Z,7.80
2022-08-22T09:06:56.718Z,8.20
2022-08-22T09:12:36.596Z,8.10
2022-08-22T09:18:24.362Z,8.00
2022-08-22T09:24:11.230Z,8.80
2022-08-22T09:29:54.456Z,8.40
2022-08-22T09:35:13.083Z,9.20
2022-08-22T09:40:37.294Z,7.90
2022-08-22T09:46:19.776Z,8.50
2022-08-22T09:52:02.643Z,9.20
2022-08-22T09:57:40.033Z,9.10
2022-08-22T10:03:06.146Z,9.80
2022-08-22T10:08:19.723Z,10.20
2022-08-22T10:14:03.682Z,9.90
2022-08-22T10:19:30.702Z,10.90
2022-08-22T10:24:58.628Z,10.90
2022-08-22T10:30:32.828Z,10.70
2022-08-22T10:36:12.022Z,11.20
2022-08-22T10:42:00.272Z,10.80
2022-08-22T10:47:15.264Z,11.50
2022-08-22T10:52:43.225Z,12.00
2022-08-22T10:58:07.279Z,12.00
2022-08-22T11:03:48.722Z,11.70
2022-08-22T11:09:09.313Z,11.30
2022-08-22T11:15:03.034Z,11.10
2022-08-22T11:20:25.469Z,11.90
2022-08-22T11:26:14.464Z,11.30
2022-08-22T11:31:47.199Z,10.90
2022-08-22T11:37:11.087Z,11.30
2022-08-22T11:42:33.498Z,12.10
2022-08-22T11:47:56.634Z,12.70
2022-08-22T11:53:15.361Z,10.30
2022-08-22T11:58:28.823Z,10.10
2022-08-22T12:04:28.737Z,11.20
2022-08-22T12:09:55.463Z,12.00
2022-08-22T12:15:21.276Z,12.50
2022-08-22T12:20:45.883Z,11.40
2022-08-22T12:26:11.048Z,11.50
2022-08-22T12:31:31.586Z,12.20
2022-08-22T12:36:55.249Z,11.10
2022-08-22T12:42:20.170Z,11.80
2022-08-22T12:48:00.829Z,11.20
2022-08-22T12:53:20.338Z,11.00
2022-08-22T12:59:22.781Z,11.50
2022-08-22T13:04:33.545Z,11.60
2022-08-22T13:09:49.052Z,11.90
2022-08-22T13:15:27.552Z,12.10
2022-08-22T13:20:31.886Z,11.00
2022-08-22T13:26:07.695Z,11.50
2022-08-22T13:31:24.895Z,11.00
2022-08-22T13:36:31.722Z,11.00
2022-08-22T13:42:00.727Z,11.00
2022-08-22T13:47:14.600Z,11.40
2022-08-22T13:52:30.575Z,10.30
2022-08-22T13:57:51.967Z,10.30
2022-08-22T14:03:26.415Z,10.10
2022-08-22T14:08:36.677Z,10.60
2022-08-22T14:13:59.547Z,9.50
2022-08-22T14:19:14.618Z,9.30
2022-08-22T14:24:31.959Z,9.90
2022-08-22T14:29:50.414Z,9.70
2022-08-22T14:35:04.469Z,9.20
2022-08-22T14:40:18.305Z,9.00
2022-08-22T14:45:33.045Z,9.20
2022-08-22T14:51:01.507Z,10.10
2022-08-22T14:56:30.293Z,9.50
2022-08-22T15:02:13.777Z,8.50
2022-08-22T15:07:35.132Z,8.60
2022-08-22T15:12:49.750Z,9.00
2022-08-22T15:17:53.468Z,8.80
2022-08-22T15:23:18.363Z,8.50
2022-08-22T15:28:22.247Z,7.90
2022-08-22T15:33:32.991Z,8.70
2022-08-22T15:38:42.058Z,8.80
2022-08-22T15:44:32.166Z,8.30
2022-08-22T15:49:51.283Z,9.00
2022-08-22T15:54:54.258Z,9.00
2022-08-22T16:00:27.920Z,8.90
2022-08-22T16:05:46.584Z,8.70
2022-08-22T16:11:02.937Z,8.70
2022-08-22T16:16:27.521Z,8.90
2022-08-22T16:21:30.448Z,8.50
2022-08-22T16:26:44.252Z,9.10
2022-08-22T16:31:47.313Z,8.80
2022-08-22T16:37:08.941Z,8.70
2022-08-22T16:42:20.904Z,9.20
2022-08-22T16:47:33.147Z,8.20
2022-08-22T16:58:15.059Z,8.90
2022-08-22T17:04:05.312Z,9.10
2022-08-22T17:09:47.672Z,8.60
2022-08-22T17:15:24.724Z,9.10
2022-08-22T17:20:39.773Z,8.50
2022-08-22T17:26:10.856Z,9.80
2022-08-22T17:31:32.547Z,9.20
2022-08-22T17:36:45.984Z,10.20
2022-08-22T17:42:10.759Z,10.10
2022-08-22T17:47:33.790Z,9.10
2022-08-22T17:52:46.199Z,9.90
2022-08-22T17:57:57.885Z,10.60
2022-08-22T18:03:08.583Z,12.40
2022-08-22T18:14:25.960Z,12.10
2022-08-22T18:20:21.887Z,11.00
2022-08-22T18:25:41.813Z,11.60
2022-08-22T18:31:02.667Z,11.10
2022-08-22T18:36:12.255Z,12.10
2022-08-22T18:41:27.830Z,11.60
2022-08-22T18:46:45.575Z,11.70
2022-08-22T18:52:10.006Z,11.10
2022-08-22T18:57:58.953Z,13.20
2022-08-22T19:03:24.118Z,12.40
2022-08-22T19:09:02.127Z,12.20
2022-08-22T19:14:28.064Z,11.30
2022-08-22T19:20:22.489Z,11.50
2022-08-22T19:25:28.012Z,11.80
2022-08-22T19:30:36.332Z,12.40
2022-08-22T19:36:06.409Z,12.30
2022-08-22T19:41:09.530Z,12.30
2022-08-22T19:46:13.606Z,11.90
2022-08-22T19:51:19.576Z,12.30
2022-08-22T19:56:53.582Z,11.90
2022-08-22T20:02:20.350Z,11.70
2022-08-22T20:08:02.945Z,14.20
2022-08-22T20:13:23.029Z,14.00
2022-08-22T20:19:08.816Z,14.10
2022-08-22T20:24:49.249Z,14.60
2022-08-22T20:30:28.607Z,13.80
2022-08-22T20:35:59.283Z,13.90
2022-08-22T20:41:23.848Z,12.80
2022-08-22T20:46:39.456Z,14.60
2022-08-22T20:51:54.614Z,15.30
2022-08-22T20:57:16.233Z,14.60
2022-08-22T21:02:34.303Z,14.70
2022-08-22T21:07:43.055Z,14.20
2022-08-22T21:13:38.771Z,13.00
2022-08-22T21:18:48.207Z,14.10
2022-08-22T21:24:07.159Z,14.90
2022-08-22T21:29:13.117Z,15.50
2022-08-22T21:34:19.874Z,15.30
2022-08-22T21:39:34.231Z,14.90
2022-08-22T21:44:41.808Z,14.30
2022-08-22T21:50:12.919Z,16.00
2022-08-22T21:55:46.818Z,16.30
2022-08-22T22:00:57.654Z,15.00
2022-08-22T22:06:05.420Z,15.10
2022-08-22T22:11:14.545Z,15.30
2022-08-22T22:16:24.945Z,14.10
2022-08-22T22:21:28.374Z,15.40
2022-08-22T22:26:31.834Z,16.10
2022-08-22T22:31:34.866Z,16.50
2022-08-22T22:36:38.302Z,16.60
2022-08-22T22:41:41.307Z,14.80
2022-08-22T22:46:44.318Z,14.70
2022-08-22T22:51:47.328Z,15.50
2022-08-22T22:56:51.834Z,15.80
2022-08-22T23:02:05.748Z,16.30
2022-08-22T23:07:11.088Z,17.20
2022-08-22T23:12:15.441Z,16.90
2022-08-22T23:17:19.499Z,16.70
2022-08-22T23:22:22.478Z,16.10
2022-08-22T23:27:25.744Z,16.90
2022-08-22T23:32:29.163Z,17.10
2022-08-22T23:37:32.260Z,19.50
2022-08-22T23:42:35.632Z,17.90
2022-08-22T23:47:38.776Z,19.20
2022-08-22T23:52:42.247Z,18.20
2022-08-22T23:57:45.288Z,18.20
